Pagrindinis puslapis
METAR-TAF:

METAR-TAF

Oro uostai :

Billund, Danija

platuma: 55-44N, ilguma: 009-10E, Aukštis: 75 m

Dabartinis oras

Ataskaita buvo paskelbta 29 minutes, ne 06:50 UTC
Vėjas 8 kt iš Vakarų, svyruoja nuo Vakarų/Pietvakarių ir Šiaurės Vakarų
Temperatūra 12°C
Drėgmė 88%
Slėgis 1019 hPa
Matomumas 10 km arba daugiau

METAR: EKBI 200650Z AUTO 28008KT 250V310 9999 BKN011/// BKN240/// 12/10 Q1019

Laikas: 09:19 (07:19 UTC)

Prognozė

Ataskaita buvo paskelbta 2 valandos ir 12 minutes, ne 05:07 UTC
Prognozė galioja nuo 20 metu 06 UTC su 21 metu 06 UTC
Vėjas 8 kt iš Vakarų
Matomumas 10 km arba daugiau
Išsisklaidę debesys ne aukštis 2000 ft
Laikinai
nuo 20 metu 06 UTC su 20 metu 08 UTC
Su prošvaistėmis ne aukštis 800 ft
Laikinai
nuo 20 metu 22 UTC su 21 metu 06 UTC
Su prošvaistėmis ne aukštis 800 ft
lietus

TAF: EKBI 200507Z 2006/2106 26008KT 9999 SCT020 TEMPO 2006/2008 BKN008 TEMPO 2022/2106 RA BKN008

Orai ataskaitas ir orų prognozės (METAR, TAF).

turimą stotys yra geltonos ir raudonos taškus žemėlapyje.

Perkelti pele per norėdami pamatyti stoties vardą.

Tada spustelėkite, norėdami matyti oro stebėjimo ir prognozės.

Norėdami pakeisti žemėlapį: spustelėkite ant žalios mygtukų su juodo kryžiaus žemyn,; žalią mygtuką su brūkšneliu, jei norite nutolinti; arba žalių rodyklių gretimoms žemėlapius.


METAR-TAF: